This is the latest recevied weather packets stored in our database for station/object KM4FZA. If no packets are shown the sender has not sent any weather packets the latest 10 day(s).
| Time | Temp. | Humidity | Pressure | Rain* | Wind** | Luminosity | Snow |
|---|---|---|---|---|---|---|---|
| 1777712726 | 11.11° C | 94% | 1016.2 hPa | 0 mm | - | - | - |
| 1777710351 | 11.67° C | 92% | 1015.6 hPa | 0 mm | - | - | - |
| 1777703124 | 10° C | 96% | 1015.1 hPa | 0 mm | - | - | - |
| 1777692340 | 10.56° C | 91% | 1016 hPa | 0 mm | - | - | - |
| 1777690518 | 11.11° C | 89% | 1016.2 hPa | 0 mm | - | - | - |
| 1777689317 | 10.56° C | 89% | 1016.4 hPa | 0 mm | - | - | - |
| 1777685132 | 11.67° C | 80% | 1016.4 hPa | 0 mm | - | - | - |
| 1777683925 | 12.22° C | 78% | 1016 hPa | 0 mm | - | - | - |
| 1777679768 | 13.89° C | 69% | 1015 hPa | 0 mm | - | - | - |
| 1777676719 | 15.56° C | 65% | 1015.2 hPa | 0 mm | - | - | - |
| 1777671927 | 18.33° C | 54% | 1015.5 hPa | 0 mm | - | - | - |
| 1777667117 | 18.33° C | 49% | 1015.9 hPa | 0 mm | - | - | - |
| 1777666522 | 18.33° C | 50% | 1016.1 hPa | 0 mm | - | - | - |
| 1777663537 | 17.22° C | 49% | 1017.1 hPa | 0 mm | - | - | - |
| 1777662920 | 17.78° C | 49% | 1017.1 hPa | 0 mm | - | - | - |
| 1777659336 | 20° C | 42% | 1017.2 hPa | 0 mm | - | - | - |
| 1777658148 | 19.44° C | 44% | 1017.5 hPa | 0 mm | - | - | - |
| 1777649733 | 15.56° C | 49% | 1019.1 hPa | 0 mm | - | - | - |
| 1777649120 | 15.56° C | 49% | 1019.1 hPa | 0 mm | - | - | - |
| 1777647318 | 16.11° C | 48% | 1019 hPa | 0 mm | - | - | - |
| 1777643121 | 12.22° C | 60% | 1018.8 hPa | 0 mm | - | - | - |
| 1777642567 | 11.67° C | 62% | 1018.7 hPa | 0 mm | - | - | - |
| 1777637716 | 11.11° C | 61% | 1018.9 hPa | 0 mm | - | - | - |
| 1777634132 | 10.56° C | 58% | 1018.8 hPa | 0 mm | - | - | - |
| 1777631717 | 10.56° C | 58% | 1017.9 hPa | 0 mm | - | - | - |
* Rain latest hour (hover to see other rain measurements)
** Current wind speed in m/s (hover to see current wind gust speed)